sensor_id;sensor_type;location;lat;lon;timestamp;pressure;altitude;pressure_sealevel;temperature
35582;BMP180;21687;48.900;9.188;2024-02-26T00:00:58;96559.00;;;7.40
35582;BMP180;21687;48.900;9.188;2024-02-26T00:03:25;96568.00;;;7.40
35582;BMP180;21687;48.900;9.188;2024-02-26T00:05:51;96566.00;;;7.40
35582;BMP180;21687;48.900;9.188;2024-02-26T00:08:17;96566.00;;;7.40
35582;BMP180;21687;48.900;9.188;2024-02-26T00:10:43;96560.00;;;7.50
35582;BMP180;21687;48.900;9.188;2024-02-26T00:13:10;96566.00;;;7.50
35582;BMP180;21687;48.900;9.188;2024-02-26T00:15:36;96555.00;;;7.50
35582;BMP180;21687;48.900;9.188;2024-02-26T00:18:02;96552.00;;;7.50
35582;BMP180;21687;48.900;9.188;2024-02-26T00:20:29;96552.00;;;7.50
35582;BMP180;21687;48.900;9.188;2024-02-26T00:22:55;96552.00;;;7.40
35582;BMP180;21687;48.900;9.188;2024-02-26T00:25:21;96547.00;;;7.30
35582;BMP180;21687;48.900;9.188;2024-02-26T00:27:47;96547.00;;;7.30
35582;BMP180;21687;48.900;9.188;2024-02-26T00:30:14;96554.00;;;7.30
35582;BMP180;21687;48.900;9.188;2024-02-26T00:32:40;96535.00;;;7.30
35582;BMP180;21687;48.900;9.188;2024-02-26T00:35:07;96541.00;;;7.30
35582;BMP180;21687;48.900;9.188;2024-02-26T00:37:33;96529.00;;;7.20
35582;BMP180;21687;48.900;9.188;2024-02-26T00:39:59;96534.00;;;7.30
35582;BMP180;21687;48.900;9.188;2024-02-26T00:42:26;96530.00;;;7.20
35582;BMP180;21687;48.900;9.188;2024-02-26T00:44:52;96532.00;;;7.20
35582;BMP180;21687;48.900;9.188;2024-02-26T00:47:18;96540.00;;;7.20
35582;BMP180;21687;48.900;9.188;2024-02-26T00:49:44;96538.00;;;7.20
35582;BMP180;21687;48.900;9.188;2024-02-26T00:52:11;96536.00;;;7.20
35582;BMP180;21687;48.900;9.188;2024-02-26T00:54:37;96545.00;;;7.20
35582;BMP180;21687;48.900;9.188;2024-02-26T00:57:03;96540.00;;;7.20
35582;BMP180;21687;48.900;9.188;2024-02-26T00:59:30;96551.00;;;7.20
35582;BMP180;21687;48.900;9.188;2024-02-26T01:01:56;96543.00;;;7.10
35582;BMP180;21687;48.900;9.188;2024-02-26T01:04:24;96544.00;;;7.20
35582;BMP180;21687;48.900;9.188;2024-02-26T01:06:50;96543.00;;;7.20
35582;BMP180;21687;48.900;9.188;2024-02-26T01:09:17;96546.00;;;7.20
35582;BMP180;21687;48.900;9.188;2024-02-26T01:11:44;96556.00;;;7.20
35582;BMP180;21687;48.900;9.188;2024-02-26T01:14:10;96560.00;;;7.10
35582;BMP180;21687;48.900;9.188;2024-02-26T01:16:36;96554.00;;;7.20
35582;BMP180;21687;48.900;9.188;2024-02-26T01:19:02;96547.00;;;7.20
35582;BMP180;21687;48.900;9.188;2024-02-26T01:21:29;96556.00;;;7.20
35582;BMP180;21687;48.900;9.188;2024-02-26T01:23:56;96556.00;;;7.10
35582;BMP180;21687;48.900;9.188;2024-02-26T01:26:22;96551.00;;;7.10
35582;BMP180;21687;48.900;9.188;2024-02-26T01:28:49;96546.00;;;7.00
35582;BMP180;21687;48.900;9.188;2024-02-26T01:31:15;96553.00;;;7.00
35582;BMP180;21687;48.900;9.188;2024-02-26T01:33:42;96540.00;;;7.00
35582;BMP180;21687;48.900;9.188;2024-02-26T01:36:08;96549.00;;;7.00
35582;BMP180;21687;48.900;9.188;2024-02-26T01:38:34;96540.00;;;7.00
35582;BMP180;21687;48.900;9.188;2024-02-26T01:41:01;96523.00;;;6.90
35582;BMP180;21687;48.900;9.188;2024-02-26T01:43:27;96531.00;;;7.00
35582;BMP180;21687;48.900;9.188;2024-02-26T01:45:54;96541.00;;;7.00
35582;BMP180;21687;48.900;9.188;2024-02-26T01:48:21;96547.00;;;7.00
35582;BMP180;21687;48.900;9.188;2024-02-26T01:50:47;96548.00;;;7.00
35582;BMP180;21687;48.900;9.188;2024-02-26T01:53:13;96553.00;;;7.00
35582;BMP180;21687;48.900;9.188;2024-02-26T01:55:40;96548.00;;;7.00
35582;BMP180;21687;48.900;9.188;2024-02-26T01:58:06;96539.00;;;7.00
35582;BMP180;21687;48.900;9.188;2024-02-26T02:00:33;96554.00;;;7.00
35582;BMP180;21687;48.900;9.188;2024-02-26T02:03:00;96583.00;;;7.00
35582;BMP180;21687;48.900;9.188;2024-02-26T02:05:26;96582.00;;;7.00
35582;BMP180;21687;48.900;9.188;2024-02-26T02:07:53;96569.00;;;7.10
35582;BMP180;21687;48.900;9.188;2024-02-26T02:10:20;96584.00;;;7.00
35582;BMP180;21687;48.900;9.188;2024-02-26T02:12:49;96584.00;;;7.10
35582;BMP180;21687;48.900;9.188;2024-02-26T02:15:16;96578.00;;;7.00
35582;BMP180;21687;48.900;9.188;2024-02-26T02:17:42;96579.00;;;7.00
35582;BMP180;21687;48.900;9.188;2024-02-26T02:20:10;96565.00;;;7.00
35582;BMP180;21687;48.900;9.188;2024-02-26T02:22:41;96576.00;;;7.00
35582;BMP180;21687;48.900;9.188;2024-02-26T02:25:07;96578.00;;;7.10
35582;BMP180;21687;48.900;9.188;2024-02-26T02:27:34;96586.00;;;7.10
35582;BMP180;21687;48.900;9.188;2024-02-26T02:30:00;96591.00;;;7.10
35582;BMP180;21687;48.900;9.188;2024-02-26T02:32:28;96594.00;;;7.20
35582;BMP180;21687;48.900;9.188;2024-02-26T02:34:56;96593.00;;;7.20
35582;BMP180;21687;48.900;9.188;2024-02-26T02:37:22;96586.00;;;7.20
35582;BMP180;21687;48.900;9.188;2024-02-26T02:39:48;96575.00;;;7.10
35582;BMP180;21687;48.900;9.188;2024-02-26T02:42:15;96588.00;;;7.20
35582;BMP180;21687;48.900;9.188;2024-02-26T02:44:42;96582.00;;;7.20
35582;BMP180;21687;48.900;9.188;2024-02-26T02:47:08;96573.00;;;7.20
35582;BMP180;21687;48.900;9.188;2024-02-26T02:49:34;96587.00;;;7.20
35582;BMP180;21687;48.900;9.188;2024-02-26T02:52:00;96581.00;;;7.20
35582;BMP180;21687;48.900;9.188;2024-02-26T02:54:27;96583.00;;;7.20
35582;BMP180;21687;48.900;9.188;2024-02-26T02:56:53;96574.00;;;7.30
35582;BMP180;21687;48.900;9.188;2024-02-26T02:59:19;96574.00;;;7.20
35582;BMP180;21687;48.900;9.188;2024-02-26T03:01:45;96581.00;;;7.20
35582;BMP180;21687;48.900;9.188;2024-02-26T03:04:13;96581.00;;;7.20
35582;BMP180;21687;48.900;9.188;2024-02-26T03:06:39;96586.00;;;7.20
35582;BMP180;21687;48.900;9.188;2024-02-26T03:09:05;96577.00;;;7.20
35582;BMP180;21687;48.900;9.188;2024-02-26T03:11:32;96576.00;;;7.10
35582;BMP180;21687;48.900;9.188;2024-02-26T03:13:58;96584.00;;;7.10
35582;BMP180;21687;48.900;9.188;2024-02-26T03:16:24;96578.00;;;7.00
35582;BMP180;21687;48.900;9.188;2024-02-26T03:18:51;96592.00;;;7.00
35582;BMP180;21687;48.900;9.188;2024-02-26T03:21:17;96596.00;;;6.90
35582;BMP180;21687;48.900;9.188;2024-02-26T03:23:44;96600.00;;;7.00
35582;BMP180;21687;48.900;9.188;2024-02-26T03:26:11;96613.00;;;7.10
35582;BMP180;21687;48.900;9.188;2024-02-26T03:28:40;96599.00;;;7.10
35582;BMP180;21687;48.900;9.188;2024-02-26T03:31:06;96594.00;;;7.10
35582;BMP180;21687;48.900;9.188;2024-02-26T03:33:32;96583.00;;;7.00
35582;BMP180;21687;48.900;9.188;2024-02-26T03:35:58;96578.00;;;7.10
35582;BMP180;21687;48.900;9.188;2024-02-26T03:38:25;96571.00;;;7.00
35582;BMP180;21687;48.900;9.188;2024-02-26T03:40:51;96575.00;;;7.10
35582;BMP180;21687;48.900;9.188;2024-02-26T03:43:17;96581.00;;;7.10
35582;BMP180;21687;48.900;9.188;2024-02-26T03:45:44;96585.00;;;7.10
35582;BMP180;21687;48.900;9.188;2024-02-26T03:48:10;96583.00;;;7.10
35582;BMP180;21687;48.900;9.188;2024-02-26T03:50:36;96588.00;;;7.10
35582;BMP180;21687;48.900;9.188;2024-02-26T03:53:02;96572.00;;;6.90
35582;BMP180;21687;48.900;9.188;2024-02-26T03:55:29;96546.00;;;6.70
35582;BMP180;21687;48.900;9.188;2024-02-26T03:57:55;96533.00;;;6.70
35582;BMP180;21687;48.900;9.188;2024-02-26T04:00:22;96536.00;;;6.60
35582;BMP180;21687;48.900;9.188;2024-02-26T04:02:48;96545.00;;;6.60
35582;BMP180;21687;48.900;9.188;2024-02-26T04:05:15;96544.00;;;6.50
35582;BMP180;21687;48.900;9.188;2024-02-26T04:07:41;96553.00;;;6.40
35582;BMP180;21687;48.900;9.188;2024-02-26T04:10:11;96546.00;;;6.30
35582;BMP180;21687;48.900;9.188;2024-02-26T04:12:41;96541.00;;;6.30
35582;BMP180;21687;48.900;9.188;2024-02-26T04:15:09;96542.00;;;6.30
35582;BMP180;21687;48.900;9.188;2024-02-26T04:17:36;96563.00;;;6.30
35582;BMP180;21687;48.900;9.188;2024-02-26T04:20:02;96565.00;;;6.30
35582;BMP180;21687;48.900;9.188;2024-02-26T04:22:29;96561.00;;;6.20
35582;BMP180;21687;48.900;9.188;2024-02-26T04:24:55;96565.00;;;6.30
35582;BMP180;21687;48.900;9.188;2024-02-26T04:27:22;96551.00;;;6.30
35582;BMP180;21687;48.900;9.188;2024-02-26T04:29:48;96556.00;;;6.20
35582;BMP180;21687;48.900;9.188;2024-02-26T04:32:14;96553.00;;;6.20
35582;BMP180;21687;48.900;9.188;2024-02-26T04:34:40;96543.00;;;6.20
35582;BMP180;21687;48.900;9.188;2024-02-26T04:37:08;96547.00;;;6.10
35582;BMP180;21687;48.900;9.188;2024-02-26T04:39:34;96535.00;;;6.10
35582;BMP180;21687;48.900;9.188;2024-02-26T04:42:00;96527.00;;;6.00
35582;BMP180;21687;48.900;9.188;2024-02-26T04:44:30;96535.00;;;6.10
35582;BMP180;21687;48.900;9.188;2024-02-26T04:46:56;96545.00;;;6.00
35582;BMP180;21687;48.900;9.188;2024-02-26T04:49:22;96545.00;;;6.10
35582;BMP180;21687;48.900;9.188;2024-02-26T04:51:49;96545.00;;;6.10
35582;BMP180;21687;48.900;9.188;2024-02-26T04:54:16;96555.00;;;6.10
35582;BMP180;21687;48.900;9.188;2024-02-26T04:56:43;96549.00;;;6.20
35582;BMP180;21687;48.900;9.188;2024-02-26T04:59:10;96551.00;;;6.30
35582;BMP180;21687;48.900;9.188;2024-02-26T05:01:36;96549.00;;;6.20
35582;BMP180;21687;48.900;9.188;2024-02-26T05:04:03;96545.00;;;6.30
35582;BMP180;21687;48.900;9.188;2024-02-26T05:06:29;96547.00;;;6.40
35582;BMP180;21687;48.900;9.188;2024-02-26T05:08:55;96548.00;;;6.40
35582;BMP180;21687;48.900;9.188;2024-02-26T05:11:22;96553.00;;;6.40
35582;BMP180;21687;48.900;9.188;2024-02-26T05:13:48;96555.00;;;6.40
35582;BMP180;21687;48.900;9.188;2024-02-26T05:16:14;96542.00;;;6.50
35582;BMP180;21687;48.900;9.188;2024-02-26T05:18:41;96542.00;;;6.40
35582;BMP180;21687;48.900;9.188;2024-02-26T05:21:07;96556.00;;;6.50
35582;BMP180;21687;48.900;9.188;2024-02-26T05:23:33;96553.00;;;6.50
35582;BMP180;21687;48.900;9.188;2024-02-26T05:26:00;96560.00;;;6.50
35582;BMP180;21687;48.900;9.188;2024-02-26T05:28:26;96557.00;;;6.50
35582;BMP180;21687;48.900;9.188;2024-02-26T05:30:52;96558.00;;;6.60
35582;BMP180;21687;48.900;9.188;2024-02-26T05:33:19;96556.00;;;6.60
35582;BMP180;21687;48.900;9.188;2024-02-26T05:35:45;96570.00;;;6.60
35582;BMP180;21687;48.900;9.188;2024-02-26T05:38:11;96567.00;;;6.60
35582;BMP180;21687;48.900;9.188;2024-02-26T05:40:37;96577.00;;;6.60
35582;BMP180;21687;48.900;9.188;2024-02-26T05:43:04;96577.00;;;6.60
35582;BMP180;21687;48.900;9.188;2024-02-26T05:45:31;96582.00;;;6.60
35582;BMP180;21687;48.900;9.188;2024-02-26T05:47:57;96575.00;;;6.50
35582;BMP180;21687;48.900;9.188;2024-02-26T05:50:23;96604.00;;;6.50
35582;BMP180;21687;48.900;9.188;2024-02-26T05:52:49;96610.00;;;6.50
35582;BMP180;21687;48.900;9.188;2024-02-26T05:55:16;96613.00;;;6.50
35582;BMP180;21687;48.900;9.188;2024-02-26T05:57:42;96611.00;;;6.50
35582;BMP180;21687;48.900;9.188;2024-02-26T06:00:09;96625.00;;;6.50
35582;BMP180;21687;48.900;9.188;2024-02-26T06:02:35;96621.00;;;6.40
35582;BMP180;21687;48.900;9.188;2024-02-26T06:05:02;96612.00;;;6.40
35582;BMP180;21687;48.900;9.188;2024-02-26T06:07:29;96624.00;;;6.30
35582;BMP180;21687;48.900;9.188;2024-02-26T06:09:55;96633.00;;;6.20
35582;BMP180;21687;48.900;9.188;2024-02-26T06:12:21;96630.00;;;6.10
35582;BMP180;21687;48.900;9.188;2024-02-26T06:14:48;96638.00;;;6.00
35582;BMP180;21687;48.900;9.188;2024-02-26T06:17:14;96630.00;;;6.00
35582;BMP180;21687;48.900;9.188;2024-02-26T06:19:40;96622.00;;;6.10
35582;BMP180;21687;48.900;9.188;2024-02-26T06:22:07;96615.00;;;6.10
35582;BMP180;21687;48.900;9.188;2024-02-26T06:24:34;96619.00;;;6.00
35582;BMP180;21687;48.900;9.188;2024-02-26T06:27:01;96622.00;;;5.90
35582;BMP180;21687;48.900;9.188;2024-02-26T06:29:27;96631.00;;;5.90
35582;BMP180;21687;48.900;9.188;2024-02-26T06:31:53;96628.00;;;5.80
35582;BMP180;21687;48.900;9.188;2024-02-26T06:34:19;96628.00;;;5.70
35582;BMP180;21687;48.900;9.188;2024-02-26T06:36:46;96631.00;;;5.70
35582;BMP180;21687;48.900;9.188;2024-02-26T06:39:13;96630.00;;;5.70
35582;BMP180;21687;48.900;9.188;2024-02-26T06:41:41;96620.00;;;5.70
35582;BMP180;21687;48.900;9.188;2024-02-26T06:44:07;96632.00;;;5.60
35582;BMP180;21687;48.900;9.188;2024-02-26T06:46:33;96634.00;;;5.70
35582;BMP180;21687;48.900;9.188;2024-02-26T06:49:00;96632.00;;;5.60
35582;BMP180;21687;48.900;9.188;2024-02-26T06:51:26;96625.00;;;5.60
35582;BMP180;21687;48.900;9.188;2024-02-26T06:53:52;96634.00;;;5.70
35582;BMP180;21687;48.900;9.188;2024-02-26T06:56:19;96639.00;;;5.70
35582;BMP180;21687;48.900;9.188;2024-02-26T06:58:45;96645.00;;;5.60
35582;BMP180;21687;48.900;9.188;2024-02-26T07:01:12;96649.00;;;5.80
35582;BMP180;21687;48.900;9.188;2024-02-26T07:03:41;96656.00;;;5.70
35582;BMP180;21687;48.900;9.188;2024-02-26T07:06:08;96657.00;;;5.80
35582;BMP180;21687;48.900;9.188;2024-02-26T07:08:34;96656.00;;;5.80
35582;BMP180;21687;48.900;9.188;2024-02-26T07:11:00;96669.00;;;5.80
35582;BMP180;21687;48.900;9.188;2024-02-26T07:13:27;96669.00;;;5.90
35582;BMP180;21687;48.900;9.188;2024-02-26T07:15:53;96680.00;;;5.90
35582;BMP180;21687;48.900;9.188;2024-02-26T07:18:19;96689.00;;;6.00
35582;BMP180;21687;48.900;9.188;2024-02-26T07:20:45;96690.00;;;6.20
35582;BMP180;21687;48.900;9.188;2024-02-26T07:23:12;96707.00;;;6.30
35582;BMP180;21687;48.900;9.188;2024-02-26T07:25:38;96693.00;;;6.40
35582;BMP180;21687;48.900;9.188;2024-02-26T07:28:05;96700.00;;;6.40
35582;BMP180;21687;48.900;9.188;2024-02-26T07:30:32;96690.00;;;6.50
35582;BMP180;21687;48.900;9.188;2024-02-26T07:32:58;96690.00;;;6.50
35582;BMP180;21687;48.900;9.188;2024-02-26T07:35:25;96695.00;;;6.60
35582;BMP180;21687;48.900;9.188;2024-02-26T07:37:51;96703.00;;;6.60
35582;BMP180;21687;48.900;9.188;2024-02-26T07:40:18;96705.00;;;6.60
35582;BMP180;21687;48.900;9.188;2024-02-26T07:42:44;96703.00;;;6.50
35582;BMP180;21687;48.900;9.188;2024-02-26T07:45:11;96699.00;;;6.60
35582;BMP180;21687;48.900;9.188;2024-02-26T07:47:37;96701.00;;;6.50
35582;BMP180;21687;48.900;9.188;2024-02-26T07:50:08;96700.00;;;6.60
35582;BMP180;21687;48.900;9.188;2024-02-26T07:52:34;96692.00;;;6.60
35582;BMP180;21687;48.900;9.188;2024-02-26T07:55:01;96710.00;;;6.60
35582;BMP180;21687;48.900;9.188;2024-02-26T07:57:27;96704.00;;;6.70
35582;BMP180;21687;48.900;9.188;2024-02-26T07:59:53;96701.00;;;6.60
35582;BMP180;21687;48.900;9.188;2024-02-26T08:02:20;96703.00;;;6.60
35582;BMP180;21687;48.900;9.188;2024-02-26T08:04:47;96705.00;;;6.50
35582;BMP180;21687;48.900;9.188;2024-02-26T08:07:13;96711.00;;;6.60
35582;BMP180;21687;48.900;9.188;2024-02-26T08:09:40;96712.00;;;6.70
35582;BMP180;21687;48.900;9.188;2024-02-26T08:12:06;96713.00;;;6.70
35582;BMP180;21687;48.900;9.188;2024-02-26T08:14:32;96717.00;;;6.70
35582;BMP180;21687;48.900;9.188;2024-02-26T08:16:59;96714.00;;;6.80
35582;BMP180;21687;48.900;9.188;2024-02-26T08:19:26;96714.00;;;6.80
35582;BMP180;21687;48.900;9.188;2024-02-26T08:21:53;96711.00;;;6.70
35582;BMP180;21687;48.900;9.188;2024-02-26T08:24:19;96712.00;;;6.70
35582;BMP180;21687;48.900;9.188;2024-02-26T08:26:45;96706.00;;;6.70
35582;BMP180;21687;48.900;9.188;2024-02-26T08:29:12;96701.00;;;6.70
35582;BMP180;21687;48.900;9.188;2024-02-26T08:31:38;96708.00;;;6.70
35582;BMP180;21687;48.900;9.188;2024-02-26T08:34:04;96704.00;;;6.50
35582;BMP180;21687;48.900;9.188;2024-02-26T08:36:32;96702.00;;;6.50
35582;BMP180;21687;48.900;9.188;2024-02-26T08:38:59;96704.00;;;6.40
35582;BMP180;21687;48.900;9.188;2024-02-26T08:41:25;96707.00;;;6.50
35582;BMP180;21687;48.900;9.188;2024-02-26T08:43:52;96705.00;;;6.40
35582;BMP180;21687;48.900;9.188;2024-02-26T08:46:18;96709.00;;;6.40
35582;BMP180;21687;48.900;9.188;2024-02-26T08:48:44;96710.00;;;6.60
35582;BMP180;21687;48.900;9.188;2024-02-26T08:51:11;96719.00;;;6.60
35582;BMP180;21687;48.900;9.188;2024-02-26T08:53:37;96727.00;;;6.70
35582;BMP180;21687;48.900;9.188;2024-02-26T08:56:04;96723.00;;;6.70
35582;BMP180;21687;48.900;9.188;2024-02-26T08:58:30;96720.00;;;6.80
35582;BMP180;21687;48.900;9.188;2024-02-26T09:00:56;96720.00;;;7.00
35582;BMP180;21687;48.900;9.188;2024-02-26T09:03:23;96716.00;;;7.00
35582;BMP180;21687;48.900;9.188;2024-02-26T09:05:50;96731.00;;;7.10
35582;BMP180;21687;48.900;9.188;2024-02-26T09:08:16;96739.00;;;7.30
35582;BMP180;21687;48.900;9.188;2024-02-26T09:10:43;96739.00;;;7.30
35582;BMP180;21687;48.900;9.188;2024-02-26T09:13:09;96739.00;;;7.40
35582;BMP180;21687;48.900;9.188;2024-02-26T09:15:35;96740.00;;;7.50
35582;BMP180;21687;48.900;9.188;2024-02-26T09:18:01;96745.00;;;7.50
35582;BMP180;21687;48.900;9.188;2024-02-26T09:20:29;96734.00;;;7.60
35582;BMP180;21687;48.900;9.188;2024-02-26T09:22:55;96731.00;;;7.60
35582;BMP180;21687;48.900;9.188;2024-02-26T09:25:22;96730.00;;;7.60
35582;BMP180;21687;48.900;9.188;2024-02-26T09:27:48;96728.00;;;7.80
35582;BMP180;21687;48.900;9.188;2024-02-26T09:30:14;96728.00;;;7.90
35582;BMP180;21687;48.900;9.188;2024-02-26T09:32:41;96726.00;;;7.90
35582;BMP180;21687;48.900;9.188;2024-02-26T09:35:07;96715.00;;;7.80
35582;BMP180;21687;48.900;9.188;2024-02-26T09:37:34;96717.00;;;7.80
35582;BMP180;21687;48.900;9.188;2024-02-26T09:40:00;96714.00;;;7.80
35582;BMP180;21687;48.900;9.188;2024-02-26T09:42:27;96722.00;;;7.80
35582;BMP180;21687;48.900;9.188;2024-02-26T09:44:55;96715.00;;;7.90
35582;BMP180;21687;48.900;9.188;2024-02-26T09:47:23;96717.00;;;8.10
35582;BMP180;21687;48.900;9.188;2024-02-26T09:49:53;96730.00;;;8.10
35582;BMP180;21687;48.900;9.188;2024-02-26T09:52:23;96732.00;;;8.20
35582;BMP180;21687;48.900;9.188;2024-02-26T09:54:49;96736.00;;;8.20
35582;BMP180;21687;48.900;9.188;2024-02-26T09:57:16;96745.00;;;8.30
35582;BMP180;21687;48.900;9.188;2024-02-26T09:59:44;96746.00;;;8.30
35582;BMP180;21687;48.900;9.188;2024-02-26T10:02:14;96746.00;;;8.40
35582;BMP180;21687;48.900;9.188;2024-02-26T10:04:41;96740.00;;;8.60
35582;BMP180;21687;48.900;9.188;2024-02-26T10:07:11;96744.00;;;8.70
35582;BMP180;21687;48.900;9.188;2024-02-26T10:09:38;96748.00;;;8.90
35582;BMP180;21687;48.900;9.188;2024-02-26T10:12:06;96746.00;;;9.10
35582;BMP180;21687;48.900;9.188;2024-02-26T10:14:33;96747.00;;;9.10
35582;BMP180;21687;48.900;9.188;2024-02-26T10:17:00;96749.00;;;9.10
35582;BMP180;21687;48.900;9.188;2024-02-26T10:19:28;96762.00;;;9.20
35582;BMP180;21687;48.900;9.188;2024-02-26T10:21:57;96759.00;;;9.20
35582;BMP180;21687;48.900;9.188;2024-02-26T10:24:24;96755.00;;;9.30
35582;BMP180;21687;48.900;9.188;2024-02-26T10:26:52;96765.00;;;9.60
35582;BMP180;21687;48.900;9.188;2024-02-26T10:29:20;96765.00;;;9.90
35582;BMP180;21687;48.900;9.188;2024-02-26T10:31:47;96757.00;;;10.10
35582;BMP180;21687;48.900;9.188;2024-02-26T10:34:16;96758.00;;;10.20
35582;BMP180;21687;48.900;9.188;2024-02-26T10:36:43;96752.00;;;10.30
35582;BMP180;21687;48.900;9.188;2024-02-26T10:39:11;96750.00;;;10.40
35582;BMP180;21687;48.900;9.188;2024-02-26T10:41:38;96759.00;;;10.50
35582;BMP180;21687;48.900;9.188;2024-02-26T10:44:04;96761.00;;;10.80
35582;BMP180;21687;48.900;9.188;2024-02-26T10:46:31;96758.00;;;10.80
35582;BMP180;21687;48.900;9.188;2024-02-26T10:48:57;96755.00;;;10.80
35582;BMP180;21687;48.900;9.188;2024-02-26T10:51:30;96748.00;;;11.00
35582;BMP180;21687;48.900;9.188;2024-02-26T10:53:58;96751.00;;;11.20
35582;BMP180;21687;48.900;9.188;2024-02-26T10:56:28;96763.00;;;11.40
35582;BMP180;21687;48.900;9.188;2024-02-26T10:58:59;96764.00;;;11.30
35582;BMP180;21687;48.900;9.188;2024-02-26T11:01:27;96766.00;;;11.20
35582;BMP180;21687;48.900;9.188;2024-02-26T11:03:58;96762.00;;;11.20
35582;BMP180;21687;48.900;9.188;2024-02-26T11:06:26;96761.00;;;11.10
35582;BMP180;21687;48.900;9.188;2024-02-26T11:08:53;96759.00;;;11.10
35582;BMP180;21687;48.900;9.188;2024-02-26T11:11:20;96759.00;;;11.20
35582;BMP180;21687;48.900;9.188;2024-02-26T11:13:48;96757.00;;;10.90
35582;BMP180;21687;48.900;9.188;2024-02-26T11:16:21;96778.00;;;11.00
35582;BMP180;21687;48.900;9.188;2024-02-26T11:18:48;96781.00;;;11.20
35582;BMP180;21687;48.900;9.188;2024-02-26T11:21:19;96782.00;;;11.10
35582;BMP180;21687;48.900;9.188;2024-02-26T11:23:46;96777.00;;;11.10
35582;BMP180;21687;48.900;9.188;2024-02-26T11:26:14;96771.00;;;11.00
35582;BMP180;21687;48.900;9.188;2024-02-26T11:28:42;96767.00;;;11.10
35582;BMP180;21687;48.900;9.188;2024-02-26T11:31:10;96766.00;;;11.10
35582;BMP180;21687;48.900;9.188;2024-02-26T11:33:36;96763.00;;;11.20
35582;BMP180;21687;48.900;9.188;2024-02-26T11:36:11;96749.00;;;11.30
35582;BMP180;21687;48.900;9.188;2024-02-26T11:38:38;96756.00;;;11.20
35582;BMP180;21687;48.900;9.188;2024-02-26T11:41:06;96771.00;;;11.20
35582;BMP180;21687;48.900;9.188;2024-02-26T11:43:52;96772.00;;;11.20
35582;BMP180;21687;48.900;9.188;2024-02-26T11:46:32;96777.00;;;11.10
35582;BMP180;21687;48.900;9.188;2024-02-26T11:49:03;96775.00;;;11.30
35582;BMP180;21687;48.900;9.188;2024-02-26T11:51:34;96771.00;;;11.40
35582;BMP180;21687;48.900;9.188;2024-02-26T11:54:01;96782.00;;;11.50
35582;BMP180;21687;48.900;9.188;2024-02-26T11:56:27;96777.00;;;11.80
35582;BMP180;21687;48.900;9.188;2024-02-26T11:59:09;96780.00;;;11.90
35582;BMP180;21687;48.900;9.188;2024-02-26T12:01:37;96775.00;;;11.90
35582;BMP180;21687;48.900;9.188;2024-02-26T12:04:24;96779.00;;;12.00
35582;BMP180;21687;48.900;9.188;2024-02-26T12:07:02;96769.00;;;12.10
35582;BMP180;21687;48.900;9.188;2024-02-26T12:09:40;96770.00;;;12.20
35582;BMP180;21687;48.900;9.188;2024-02-26T12:12:13;96773.00;;;12.10
35582;BMP180;21687;48.900;9.188;2024-02-26T12:14:53;96780.00;;;12.10
35582;BMP180;21687;48.900;9.188;2024-02-26T12:17:23;96776.00;;;12.00
35582;BMP180;21687;48.900;9.188;2024-02-26T12:19:49;96790.00;;;12.00
35582;BMP180;21687;48.900;9.188;2024-02-26T12:22:16;96789.00;;;12.10
35582;BMP180;21687;48.900;9.188;2024-02-26T12:24:46;96791.00;;;12.30
35582;BMP180;21687;48.900;9.188;2024-02-26T12:27:12;96797.00;;;12.40
35582;BMP180;21687;48.900;9.188;2024-02-26T12:29:40;96798.00;;;12.50
35582;BMP180;21687;48.900;9.188;2024-02-26T12:32:07;96798.00;;;12.70
35582;BMP180;21687;48.900;9.188;2024-02-26T12:34:33;96804.00;;;13.00
35582;BMP180;21687;48.900;9.188;2024-02-26T12:37:00;96796.00;;;13.20
35582;BMP180;21687;48.900;9.188;2024-02-26T12:39:27;96798.00;;;13.40
35582;BMP180;21687;48.900;9.188;2024-02-26T12:41:53;96793.00;;;13.70
35582;BMP180;21687;48.900;9.188;2024-02-26T12:44:25;96800.00;;;13.60
35582;BMP180;21687;48.900;9.188;2024-02-26T12:47:03;96800.00;;;13.60
35582;BMP180;21687;48.900;9.188;2024-02-26T12:49:30;96799.00;;;13.60
35582;BMP180;21687;48.900;9.188;2024-02-26T12:51:56;96808.00;;;13.80
35582;BMP180;21687;48.900;9.188;2024-02-26T12:54:34;96811.00;;;13.80
35582;BMP180;21687;48.900;9.188;2024-02-26T12:57:02;96801.00;;;13.60
35582;BMP180;21687;48.900;9.188;2024-02-26T12:59:30;96813.00;;;13.60
35582;BMP180;21687;48.900;9.188;2024-02-26T13:01:57;96821.00;;;13.60
35582;BMP180;21687;48.900;9.188;2024-02-26T13:04:24;96807.00;;;13.40
35582;BMP180;21687;48.900;9.188;2024-02-26T13:06:51;96815.00;;;13.50
35582;BMP180;21687;48.900;9.188;2024-02-26T13:09:18;96819.00;;;13.40
35582;BMP180;21687;48.900;9.188;2024-02-26T13:11:45;96812.00;;;13.40
35582;BMP180;21687;48.900;9.188;2024-02-26T13:14:20;96811.00;;;13.70
35582;BMP180;21687;48.900;9.188;2024-02-26T13:16:58;96821.00;;;13.70
35582;BMP180;21687;48.900;9.188;2024-02-26T13:19:25;96827.00;;;13.80
35582;BMP180;21687;48.900;9.188;2024-02-26T13:21:51;96821.00;;;13.70
35582;BMP180;21687;48.900;9.188;2024-02-26T13:24:19;96826.00;;;13.60
35582;BMP180;21687;48.900;9.188;2024-02-26T13:26:46;96825.00;;;13.80
35582;BMP180;21687;48.900;9.188;2024-02-26T13:29:19;96827.00;;;13.70
35582;BMP180;21687;48.900;9.188;2024-02-26T13:31:45;96824.00;;;13.90
35582;BMP180;21687;48.900;9.188;2024-02-26T13:34:27;96829.00;;;13.70
35582;BMP180;21687;48.900;9.188;2024-02-26T13:36:56;96815.00;;;13.50
35582;BMP180;21687;48.900;9.188;2024-02-26T13:39:24;96819.00;;;13.60
35582;BMP180;21687;48.900;9.188;2024-02-26T13:41:51;96819.00;;;13.60
35582;BMP180;21687;48.900;9.188;2024-02-26T13:44:19;96820.00;;;13.50
35582;BMP180;21687;48.900;9.188;2024-02-26T13:46:46;96825.00;;;13.60
35582;BMP180;21687;48.900;9.188;2024-02-26T13:49:12;96823.00;;;13.50
35582;BMP180;21687;48.900;9.188;2024-02-26T13:51:42;96823.00;;;13.40
35582;BMP180;21687;48.900;9.188;2024-02-26T13:54:08;96821.00;;;13.50
35582;BMP180;21687;48.900;9.188;2024-02-26T13:56:39;96821.00;;;13.50
35582;BMP180;21687;48.900;9.188;2024-02-26T13:59:06;96827.00;;;13.60
35582;BMP180;21687;48.900;9.188;2024-02-26T14:01:32;96830.00;;;13.60
35582;BMP180;21687;48.900;9.188;2024-02-26T14:03:59;96829.00;;;13.70
35582;BMP180;21687;48.900;9.188;2024-02-26T14:06:27;96827.00;;;13.60
35582;BMP180;21687;48.900;9.188;2024-02-26T14:08:54;96832.00;;;13.50
35582;BMP180;21687;48.900;9.188;2024-02-26T14:11:20;96832.00;;;13.40
35582;BMP180;21687;48.900;9.188;2024-02-26T14:13:46;96822.00;;;13.30
35582;BMP180;21687;48.900;9.188;2024-02-26T14:16:13;96826.00;;;13.40
35582;BMP180;21687;48.900;9.188;2024-02-26T14:18:40;96833.00;;;13.50